createdAt,value
2017-06-15T00:00:26.391Z,10.17
2017-06-15T00:02:53.983Z,10.93
2017-06-15T00:05:21.550Z,11.07
2017-06-15T00:07:49.111Z,11.00
2017-06-15T00:10:17.463Z,12.63
2017-06-15T00:12:45.199Z,10.73
2017-06-15T00:15:12.772Z,10.77
2017-06-15T00:17:40.352Z,11.50
2017-06-15T00:20:08.197Z,11.07
2017-06-15T00:22:35.761Z,10.20
2017-06-15T00:25:03.335Z,11.03
2017-06-15T00:27:30.918Z,11.40
2017-06-15T00:29:58.481Z,10.47
2017-06-15T00:32:26.086Z,10.10
2017-06-15T00:34:53.661Z,10.37
2017-06-15T00:37:21.257Z,10.40
2017-06-15T00:39:48.837Z,10.67
2017-06-15T00:42:16.415Z,10.00
2017-06-15T00:44:43.991Z,10.00
2017-06-15T00:47:11.561Z,10.53
2017-06-15T00:49:39.149Z,10.73
2017-06-15T00:52:07.480Z,11.10
2017-06-15T00:54:35.339Z,9.67
2017-06-15T00:57:02.915Z,10.90
2017-06-15T00:59:30.494Z,11.20
2017-06-15T01:01:58.067Z,10.23
2017-06-15T01:04:25.647Z,10.67
2017-06-15T01:06:53.232Z,11.10
2017-06-15T01:09:20.805Z,11.10
2017-06-15T01:11:48.397Z,10.90
2017-06-15T01:14:16.721Z,10.17
2017-06-15T01:16:44.289Z,10.67
2017-06-15T01:19:11.861Z,10.77
2017-06-15T01:21:39.413Z,10.87
2017-06-15T01:24:06.999Z,10.23
2017-06-15T01:26:34.577Z,10.77
2017-06-15T01:29:02.950Z,10.50
2017-06-15T01:31:31.275Z,9.87
2017-06-15T01:33:58.838Z,9.27
2017-06-15T01:36:26.402Z,10.80
2017-06-15T01:38:53.980Z,10.43
2017-06-15T01:41:21.566Z,10.47
2017-06-15T01:43:49.911Z,10.43
2017-06-15T01:46:17.514Z,9.93
2017-06-15T01:48:45.079Z,10.20
2017-06-15T01:51:12.659Z,9.37
2017-06-15T01:53:40.256Z,9.90
2017-06-15T01:56:07.828Z,9.27
2017-06-15T01:58:35.408Z,9.80
2017-06-15T02:01:02.974Z,9.00
2017-06-15T02:03:30.561Z,10.00
2017-06-15T02:05:58.128Z,9.80
2017-06-15T02:08:25.692Z,9.97
2017-06-15T02:10:53.267Z,8.83
2017-06-15T02:13:20.843Z,9.00
2017-06-15T02:15:49.196Z,9.25
2017-06-15T02:18:16.754Z,10.82
2017-06-15T02:20:44.338Z,9.50
2017-06-15T02:23:11.906Z,10.13
2017-06-15T02:25:40.260Z,10.60
2017-06-15T02:28:08.605Z,9.65
2017-06-15T02:30:36.177Z,10.30
2017-06-15T02:33:03.750Z,9.77
2017-06-15T02:35:31.333Z,17.43
2017-06-15T02:37:59.704Z,9.68
2017-06-15T02:40:27.271Z,10.13
2017-06-15T02:42:55.615Z,9.82
2017-06-15T02:45:23.215Z,10.73
2017-06-15T02:47:50.781Z,8.93
2017-06-15T02:50:18.356Z,13.15
2017-06-15T02:52:45.922Z,9.07
2017-06-15T02:55:13.534Z,9.73
2017-06-15T02:57:41.864Z,10.95
2017-06-15T03:00:09.442Z,10.30
2017-06-15T03:02:37.035Z,8.48
2017-06-15T03:05:04.620Z,11.77
2017-06-15T03:07:32.200Z,9.93
2017-06-15T03:09:59.772Z,9.20
2017-06-15T03:12:27.387Z,9.60
2017-06-15T03:14:54.978Z,9.27
2017-06-15T03:17:22.551Z,9.90
2017-06-15T03:19:50.147Z,9.37
2017-06-15T03:22:18.570Z,8.50
2017-06-15T03:24:46.168Z,9.95
2017-06-15T03:27:14.511Z,10.07
2017-06-15T03:29:42.364Z,9.43
2017-06-15T03:32:09.934Z,9.30
2017-06-15T03:34:37.504Z,10.47
2017-06-15T03:37:05.096Z,8.90
2017-06-15T03:39:33.449Z,9.70
2017-06-15T03:42:01.026Z,10.38
2017-06-15T03:44:28.581Z,9.37
2017-06-15T03:46:56.184Z,10.15
2017-06-15T03:49:23.756Z,9.75
2017-06-15T03:51:51.320Z,9.80
2017-06-15T03:54:18.915Z,9.18
2017-06-15T03:56:46.491Z,8.70
2017-06-15T03:59:14.845Z,8.43
2017-06-15T04:01:42.760Z,9.57
2017-06-15T04:04:10.436Z,9.73
2017-06-15T04:06:38.016Z,12.27
2017-06-15T04:09:05.582Z,9.00
2017-06-15T04:11:33.168Z,9.03
2017-06-15T04:14:01.517Z,9.97
2017-06-15T04:16:29.096Z,8.80
2017-06-15T04:18:56.672Z,10.33
2017-06-15T04:21:25.026Z,8.87
2017-06-15T04:23:52.601Z,8.73
2017-06-15T04:26:20.169Z,10.63
2017-06-15T04:28:47.772Z,9.50
2017-06-15T04:31:15.355Z,12.13
2017-06-15T04:33:42.963Z,10.40
2017-06-15T04:36:10.537Z,10.53
2017-06-15T04:38:38.128Z,10.10
2017-06-15T04:41:05.704Z,10.10
2017-06-15T04:43:33.284Z,12.13
2017-06-15T04:46:00.869Z,9.77
2017-06-15T04:48:28.436Z,9.43
2017-06-15T04:50:56.022Z,9.13
2017-06-15T04:53:23.578Z,10.50
2017-06-15T04:55:51.183Z,10.57
2017-06-15T04:58:18.747Z,9.83
2017-06-15T05:00:46.325Z,10.57
2017-06-15T05:03:13.908Z,10.90
2017-06-15T05:05:41.470Z,10.50
2017-06-15T05:08:09.051Z,10.23
2017-06-15T05:10:36.616Z,10.73
2017-06-15T05:13:04.563Z,10.23
2017-06-15T05:15:32.133Z,9.80
2017-06-15T05:17:59.711Z,11.17
2017-06-15T05:20:27.292Z,10.53
2017-06-15T05:22:54.883Z,10.30
2017-06-15T05:25:22.478Z,9.83
2017-06-15T05:27:50.055Z,10.83
2017-06-15T05:30:17.893Z,9.57
2017-06-15T05:32:45.443Z,9.90
2017-06-15T05:35:13.033Z,10.77
2017-06-15T05:37:40.611Z,9.47
2017-06-15T05:40:08.182Z,10.23
2017-06-15T05:42:35.770Z,10.57
2017-06-15T05:45:03.349Z,10.30
2017-06-15T05:47:30.988Z,10.70
2017-06-15T05:49:58.552Z,10.03
2017-06-15T05:52:26.131Z,9.90
2017-06-15T05:54:53.727Z,9.90
2017-06-15T05:57:21.325Z,12.90
2017-06-15T05:59:48.895Z,9.20
2017-06-15T06:02:16.474Z,8.93
2017-06-15T06:04:44.451Z,10.27
2017-06-15T06:07:12.793Z,9.87
2017-06-15T06:09:40.430Z,10.60
2017-06-15T06:12:08.008Z,9.30
2017-06-15T06:14:35.589Z,9.10
2017-06-15T06:17:03.167Z,10.00
2017-06-15T06:19:30.753Z,10.87
2017-06-15T06:21:58.370Z,9.63
2017-06-15T06:24:25.957Z,11.63
2017-06-15T06:26:53.565Z,10.10
2017-06-15T06:29:21.141Z,8.83
2017-06-15T06:31:48.870Z,9.83
2017-06-15T06:34:16.458Z,9.63
2017-06-15T06:36:44.019Z,11.30
2017-06-15T06:39:11.609Z,10.07
2017-06-15T06:41:39.960Z,10.73
2017-06-15T06:44:07.536Z,9.47
2017-06-15T06:46:35.122Z,10.17
2017-06-15T06:49:02.685Z,8.60
2017-06-15T06:51:30.366Z,8.10
2017-06-15T06:53:57.936Z,8.87
2017-06-15T06:56:25.534Z,9.63
2017-06-15T06:58:53.098Z,10.10
2017-06-15T07:01:21.421Z,8.90
2017-06-15T07:03:49.030Z,8.63
2017-06-15T07:06:17.362Z,6.90
2017-06-15T07:08:44.951Z,6.97
2017-06-15T07:11:12.523Z,8.53
2017-06-15T07:13:40.874Z,7.87
2017-06-15T07:16:08.436Z,7.50
2017-06-15T07:18:36.000Z,8.97
2017-06-15T07:21:03.585Z,7.53
2017-06-15T07:23:31.909Z,8.20
2017-06-15T07:25:59.467Z,7.43
2017-06-15T07:28:27.035Z,7.50
2017-06-15T07:30:54.996Z,8.13
2017-06-15T07:33:22.546Z,8.00
2017-06-15T07:35:50.106Z,7.37
2017-06-15T07:38:17.686Z,7.83
2017-06-15T07:40:45.247Z,10.77
2017-06-15T07:43:12.846Z,7.93
2017-06-15T07:45:40.426Z,8.17
2017-06-15T07:48:08.249Z,7.50
2017-06-15T07:50:35.819Z,7.60
2017-06-15T07:53:04.152Z,7.27
2017-06-15T07:55:32.022Z,7.30
2017-06-15T07:57:59.656Z,6.73
2017-06-15T08:00:27.241Z,6.97
2017-06-15T08:02:54.818Z,6.40
2017-06-15T08:05:22.444Z,5.50
2017-06-15T08:07:50.051Z,5.23
2017-06-15T08:10:18.462Z,6.67
2017-06-15T08:12:46.027Z,6.40
2017-06-15T08:15:13.613Z,4.70
2017-06-15T08:17:41.179Z,4.43
2017-06-15T08:20:08.769Z,3.83
2017-06-15T08:22:36.333Z,7.57
2017-06-15T08:25:04.669Z,4.50
2017-06-15T08:27:32.247Z,4.60
2017-06-15T08:29:59.815Z,4.50
2017-06-15T08:32:27.405Z,3.90
2017-06-15T08:34:54.980Z,4.53
2017-06-15T08:37:22.579Z,3.80
2017-06-15T08:39:50.183Z,3.63
2017-06-15T08:42:17.750Z,4.50
2017-06-15T08:45:02.930Z,3.73
2017-06-15T08:47:30.490Z,5.50
2017-06-15T08:49:58.069Z,3.83
2017-06-15T08:52:25.640Z,3.90
2017-06-15T08:54:53.211Z,4.70
2017-06-15T08:57:20.798Z,3.93
2017-06-15T08:59:49.142Z,5.00
2017-06-15T09:02:16.711Z,4.00
2017-06-15T09:04:44.275Z,6.90
2017-06-15T09:07:11.834Z,4.77
2017-06-15T09:09:40.226Z,4.60
2017-06-15T09:12:08.259Z,5.20
2017-06-15T09:14:35.824Z,4.70
2017-06-15T09:17:03.395Z,5.03
2017-06-15T09:19:30.999Z,4.73
2017-06-15T09:21:58.556Z,4.40
2017-06-15T09:24:26.126Z,4.93
2017-06-15T09:26:53.695Z,4.60
2017-06-15T09:29:21.294Z,4.97
2017-06-15T09:31:48.867Z,4.67
2017-06-15T09:34:16.458Z,4.70
2017-06-15T09:36:44.275Z,4.67
2017-06-15T09:39:11.850Z,4.60
2017-06-15T09:41:40.181Z,4.80
2017-06-15T09:44:07.752Z,4.73
2017-06-15T09:46:35.317Z,5.20
2017-06-15T09:49:02.908Z,7.93
2017-06-15T09:51:30.482Z,5.70
2017-06-15T09:53:59.783Z,4.30
2017-06-15T09:56:27.380Z,4.80
2017-06-15T09:58:54.971Z,5.10
2017-06-15T10:01:22.541Z,4.87
2017-06-15T10:03:50.867Z,5.00
2017-06-15T10:06:19.262Z,6.13
2017-06-15T10:08:46.839Z,7.13
2017-06-15T10:11:15.180Z,5.97
2017-06-15T10:13:42.754Z,5.00
2017-06-15T10:16:10.358Z,7.03
2017-06-15T10:18:37.922Z,5.47
2017-06-15T10:21:05.485Z,5.30
2017-06-15T10:23:33.062Z,5.40
2017-06-15T10:26:00.639Z,5.80
2017-06-15T10:28:28.227Z,7.37
2017-06-15T10:30:56.578Z,6.00
2017-06-15T10:33:24.161Z,4.97
2017-06-15T10:35:51.739Z,5.87
2017-06-15T10:38:20.064Z,5.50
2017-06-15T10:40:47.659Z,5.33
2017-06-15T10:43:15.228Z,5.87
2017-06-15T10:45:43.558Z,6.47
2017-06-15T10:48:11.117Z,6.53
2017-06-15T10:50:38.713Z,5.40
2017-06-15T10:53:07.044Z,5.60
2017-06-15T10:55:34.621Z,7.23
2017-06-15T10:58:02.180Z,7.33
2017-06-15T11:00:31.348Z,8.00
2017-06-15T11:02:58.923Z,5.37
2017-06-15T11:05:26.487Z,7.40
2017-06-15T11:07:54.091Z,8.30
2017-06-15T11:10:21.665Z,6.17
2017-06-15T11:12:49.237Z,6.27
2017-06-15T11:15:16.843Z,6.20
2017-06-15T11:17:44.455Z,5.40
2017-06-15T11:20:12.045Z,6.67
2017-06-15T11:22:39.623Z,6.13
2017-06-15T11:25:07.586Z,6.10
2017-06-15T11:27:35.252Z,5.80
2017-06-15T11:30:02.843Z,5.93
2017-06-15T11:32:30.453Z,5.90
2017-06-15T11:34:58.031Z,6.17
2017-06-15T11:37:25.630Z,5.97
2017-06-15T11:39:53.213Z,5.33
2017-06-15T11:42:20.853Z,5.73
2017-06-15T11:44:48.450Z,5.40
2017-06-15T11:47:16.015Z,5.60
2017-06-15T11:49:43.596Z,5.20
2017-06-15T11:52:11.941Z,5.13
2017-06-15T11:54:39.514Z,4.80
2017-06-15T11:57:07.079Z,5.50
2017-06-15T11:59:34.669Z,5.00
2017-06-15T12:02:02.258Z,5.57
2017-06-15T12:04:29.837Z,5.97
2017-06-15T12:06:57.428Z,7.50
2017-06-15T12:09:25.758Z,5.50
2017-06-15T12:11:53.333Z,5.53
2017-06-15T12:14:20.906Z,8.07
2017-06-15T12:16:48.489Z,7.70
2017-06-15T12:19:16.830Z,5.27
2017-06-15T12:21:44.399Z,5.03
2017-06-15T12:24:11.979Z,5.87
2017-06-15T12:26:40.355Z,6.27
2017-06-15T12:29:08.705Z,5.50
2017-06-15T12:31:36.279Z,5.10
2017-06-15T12:34:03.878Z,4.83
2017-06-15T12:36:31.470Z,6.00
2017-06-15T12:38:59.040Z,5.50
2017-06-15T12:41:26.628Z,5.03
2017-06-15T12:43:54.218Z,7.97
2017-06-15T12:46:21.818Z,4.97
2017-06-15T12:48:49.392Z,5.40
2017-06-15T12:51:17.022Z,5.70
2017-06-15T12:53:44.588Z,4.47
2017-06-15T12:56:12.149Z,5.37
2017-06-15T12:58:39.727Z,4.63
2017-06-15T13:01:07.297Z,5.30
2017-06-15T13:03:35.653Z,5.70
2017-06-15T13:06:03.233Z,7.67
2017-06-15T13:08:31.590Z,5.00
2017-06-15T13:10:59.148Z,7.30
2017-06-15T13:13:26.953Z,5.90
2017-06-15T13:15:54.536Z,5.60
2017-06-15T13:18:22.141Z,4.97
2017-06-15T13:20:49.738Z,5.80
2017-06-15T13:23:17.307Z,8.70
2017-06-15T13:25:44.920Z,8.20
2017-06-15T13:28:12.499Z,9.90
2017-06-15T13:30:40.853Z,7.93
2017-06-15T13:33:08.447Z,5.47
2017-06-15T13:35:36.003Z,5.33
2017-06-15T13:38:04.338Z,5.40
2017-06-15T13:40:31.906Z,5.70
2017-06-15T13:42:59.488Z,7.07
2017-06-15T13:45:27.808Z,5.30
2017-06-15T13:47:55.377Z,5.67
2017-06-15T13:50:22.959Z,5.60
2017-06-15T13:52:50.536Z,5.83
2017-06-15T13:55:18.131Z,5.47
2017-06-15T13:57:45.688Z,5.33
2017-06-15T14:00:13.256Z,6.23
2017-06-15T14:02:40.834Z,5.60
2017-06-15T14:05:08.416Z,5.77
2017-06-15T14:07:35.973Z,6.03
2017-06-15T14:10:03.560Z,5.13
2017-06-15T14:12:31.131Z,6.57
2017-06-15T14:14:58.709Z,6.00
2017-06-15T14:17:26.310Z,5.90
2017-06-15T14:19:53.902Z,5.67
2017-06-15T14:22:21.468Z,6.20
2017-06-15T14:24:49.064Z,5.97
2017-06-15T14:27:16.617Z,5.97
2017-06-15T14:29:44.209Z,6.43
2017-06-15T14:32:11.778Z,6.37
2017-06-15T14:34:40.128Z,5.37
2017-06-15T14:37:07.712Z,8.57
2017-06-15T14:39:36.073Z,5.73
2017-06-15T14:42:03.673Z,5.70
2017-06-15T14:44:31.231Z,5.40
2017-06-15T14:46:58.797Z,5.93
2017-06-15T14:49:26.434Z,5.93
2017-06-15T14:51:54.003Z,8.00
2017-06-15T14:54:21.596Z,6.67
2017-06-15T14:56:49.168Z,4.73
2017-06-15T14:59:16.739Z,6.90
2017-06-15T15:01:45.044Z,6.33
2017-06-15T15:04:13.370Z,5.70
2017-06-15T15:06:40.981Z,6.93
2017-06-15T15:09:20.496Z,5.10
2017-06-15T15:11:48.477Z,5.07
2017-06-15T15:14:16.824Z,5.40
2017-06-15T15:16:44.389Z,7.57
2017-06-15T15:19:11.976Z,4.93
2017-06-15T15:21:40.315Z,5.40
2017-06-15T15:24:08.187Z,6.93
2017-06-15T15:26:35.751Z,5.83
2017-06-15T15:29:03.313Z,5.87
2017-06-15T15:31:30.886Z,5.73
2017-06-15T15:33:58.465Z,5.00
2017-06-15T15:36:26.064Z,5.30
2017-06-15T15:38:53.659Z,6.97
2017-06-15T15:41:21.265Z,6.33
2017-06-15T15:43:48.846Z,5.30
2017-06-15T15:46:16.416Z,5.50
2017-06-15T15:48:43.989Z,6.17
2017-06-15T15:51:11.559Z,5.53
2017-06-15T15:53:39.147Z,5.40
2017-06-15T15:56:06.712Z,5.80
2017-06-15T15:58:34.330Z,5.73
2017-06-15T16:01:01.899Z,6.07
2017-06-15T16:03:30.241Z,7.37
2017-06-15T16:05:57.829Z,6.20
2017-06-15T16:08:25.393Z,6.30
2017-06-15T16:10:53.736Z,5.40
2017-06-15T16:13:21.313Z,5.73
2017-06-15T16:15:49.077Z,7.23
2017-06-15T16:18:16.656Z,6.73
2017-06-15T16:20:44.257Z,6.57
2017-06-15T16:23:11.871Z,6.77
2017-06-15T16:25:40.241Z,6.47
2017-06-15T16:28:07.844Z,6.10
2017-06-15T16:30:35.431Z,5.23
2017-06-15T16:33:03.026Z,6.67
2017-06-15T16:35:31.417Z,5.97
2017-06-15T16:37:59.748Z,6.50
2017-06-15T16:40:27.339Z,6.40
2017-06-15T16:42:55.661Z,8.37
2017-06-15T16:45:23.270Z,8.80
2017-06-15T16:47:50.838Z,6.67
2017-06-15T16:50:19.203Z,6.17
2017-06-15T16:52:46.765Z,6.90
2017-06-15T16:55:14.333Z,6.07
2017-06-15T16:57:42.689Z,6.90
2017-06-15T17:00:10.279Z,7.00
2017-06-15T17:02:38.626Z,6.50
2017-06-15T17:05:06.190Z,5.87
2017-06-15T17:07:33.785Z,5.83
2017-06-15T17:10:01.338Z,6.63
2017-06-15T17:12:28.979Z,6.60
2017-06-15T17:14:56.561Z,6.70
2017-06-15T17:17:24.134Z,6.10
2017-06-15T17:19:51.735Z,6.10
2017-06-15T17:22:19.311Z,7.50
2017-06-15T17:24:46.922Z,5.70
2017-06-15T17:27:14.495Z,6.20
2017-06-15T17:29:42.067Z,6.67
2017-06-15T17:32:09.657Z,6.70
2017-06-15T17:34:38.029Z,6.80
2017-06-15T17:37:05.634Z,6.40
2017-06-15T17:39:33.217Z,8.90
2017-06-15T17:42:00.907Z,5.90
2017-06-15T17:44:28.474Z,9.20
2017-06-15T17:46:56.050Z,6.70
2017-06-15T17:49:23.690Z,6.30
2017-06-15T17:51:52.032Z,6.37
2017-06-15T17:54:19.681Z,6.63
2017-06-15T17:56:47.245Z,7.73
2017-06-15T17:59:14.868Z,7.27
2017-06-15T18:01:42.432Z,8.73
2017-06-15T18:04:10.027Z,6.70
2017-06-15T18:06:37.863Z,7.13
2017-06-15T18:09:05.547Z,5.97
2017-06-15T18:11:33.153Z,5.70
2017-06-15T18:14:01.486Z,5.97
2017-06-15T18:16:29.084Z,7.73
2017-06-15T18:18:57.414Z,8.17
2017-06-15T18:21:25.045Z,6.90
2017-06-15T18:23:52.637Z,6.93
2017-06-15T18:26:20.197Z,6.90
2017-06-15T18:28:47.815Z,6.60
2017-06-15T18:31:15.452Z,6.10
2017-06-15T18:33:43.033Z,6.70
2017-06-15T18:36:11.394Z,6.77
2017-06-15T18:38:38.972Z,7.13
2017-06-15T18:41:06.557Z,7.00
2017-06-15T18:43:34.145Z,6.93
2017-06-15T18:46:01.744Z,5.83
2017-06-15T18:48:30.083Z,10.83
2017-06-15T18:50:57.925Z,7.33
2017-06-15T18:53:25.696Z,6.93
2017-06-15T18:55:53.278Z,6.70
2017-06-15T18:58:20.890Z,7.30
2017-06-15T19:00:48.525Z,6.50
2017-06-15T19:03:22.504Z,7.03
2017-06-15T19:05:50.918Z,7.07
2017-06-15T19:08:18.642Z,6.70
2017-06-15T19:10:46.430Z,7.33
2017-06-15T19:13:14.059Z,6.67
2017-06-15T19:15:41.659Z,7.67
2017-06-15T19:18:10.008Z,6.87
2017-06-15T19:20:37.710Z,7.60
2017-06-15T19:23:05.350Z,7.23
2017-06-15T19:25:33.887Z,6.30
2017-06-15T19:28:01.556Z,7.90
2017-06-15T19:30:29.126Z,8.27
2017-06-15T19:32:56.696Z,7.97
2017-06-15T19:35:24.272Z,6.40
2017-06-15T19:37:51.848Z,8.60
2017-06-15T19:40:19.436Z,7.07
2017-06-15T19:42:47.010Z,7.57
2017-06-15T19:45:14.616Z,6.80
2017-06-15T19:47:42.945Z,7.17
2017-06-15T19:50:10.627Z,7.43
2017-06-15T19:52:38.266Z,7.27
2017-06-15T19:55:05.862Z,7.10
2017-06-15T19:57:34.291Z,6.80
2017-06-15T20:00:01.960Z,9.43
2017-06-15T20:02:29.587Z,7.20
2017-06-15T20:04:57.176Z,7.53
2017-06-15T20:07:25.029Z,7.70
2017-06-15T20:09:52.794Z,7.63
2017-06-15T20:12:20.452Z,6.13
2017-06-15T20:14:48.292Z,8.80
2017-06-15T20:17:16.351Z,7.50
2017-06-15T20:19:44.072Z,7.20
2017-06-15T20:22:11.773Z,7.10
2017-06-15T20:24:45.077Z,7.07
2017-06-15T20:27:13.027Z,7.53
2017-06-15T20:29:41.647Z,7.00
2017-06-15T20:32:09.456Z,6.77
2017-06-15T20:34:37.261Z,6.60
2017-06-15T20:37:05.066Z,7.70
2017-06-15T20:39:32.846Z,6.93
2017-06-15T20:42:01.889Z,6.20
2017-06-15T20:44:29.591Z,7.13
2017-06-15T20:46:57.308Z,7.90
2017-06-15T20:49:25.039Z,6.97
2017-06-15T20:51:52.641Z,6.90
2017-06-15T20:54:20.265Z,7.07
2017-06-15T20:56:48.626Z,7.20
2017-06-15T20:59:16.207Z,6.37
2017-06-15T21:01:44.538Z,6.87
2017-06-15T21:04:12.164Z,8.90
2017-06-15T21:06:39.761Z,7.30
2017-06-15T21:09:07.366Z,7.80
2017-06-15T21:11:35.794Z,6.73
2017-06-15T21:14:03.401Z,7.20
2017-06-15T21:16:31.820Z,6.73
2017-06-15T21:18:59.391Z,6.40
2017-06-15T21:21:27.033Z,6.73
2017-06-15T21:23:54.619Z,10.30
2017-06-15T21:26:22.207Z,5.97
2017-06-15T21:28:49.778Z,8.10
2017-06-15T21:31:18.184Z,5.57
2017-06-15T21:33:45.757Z,7.30
2017-06-15T21:36:13.345Z,6.67
2017-06-15T21:38:40.931Z,7.13
2017-06-15T21:41:09.269Z,3.97
2017-06-15T21:43:37.139Z,4.80
2017-06-15T21:46:04.700Z,4.40
2017-06-15T21:48:32.256Z,4.47
2017-06-15T21:50:59.847Z,5.10
2017-06-15T21:53:28.206Z,5.40
2017-06-15T21:55:55.823Z,8.70
2017-06-15T21:58:23.410Z,4.23
2017-06-15T22:00:50.992Z,7.37
2017-06-15T22:03:18.591Z,3.10
2017-06-15T22:05:46.162Z,4.30
2017-06-15T22:08:13.751Z,6.37
2017-06-15T22:10:41.314Z,5.20
2017-06-15T22:13:08.886Z,3.47
2017-06-15T22:15:36.466Z,3.93
2017-06-15T22:18:04.819Z,3.27
2017-06-15T22:20:32.392Z,3.33
2017-06-15T22:23:00.729Z,4.60
2017-06-15T22:25:28.326Z,4.47
2017-06-15T22:27:56.917Z,6.30
2017-06-15T22:30:25.265Z,4.00
2017-06-15T22:32:52.856Z,4.70
2017-06-15T22:35:21.202Z,4.10
2017-06-15T22:37:48.786Z,4.00
2017-06-15T22:40:17.162Z,4.50
2017-06-15T22:42:45.505Z,3.73
2017-06-15T22:45:13.082Z,3.53
2017-06-15T22:47:40.660Z,3.43
2017-06-15T22:50:09.291Z,4.10
2017-06-15T22:52:36.848Z,3.80
2017-06-15T22:55:04.421Z,4.63
2017-06-15T22:57:32.000Z,6.43
2017-06-15T22:59:59.561Z,3.50
2017-06-15T23:02:39.034Z,4.57
2017-06-15T23:05:06.607Z,6.07
2017-06-15T23:07:34.179Z,3.70
2017-06-15T23:10:01.764Z,3.67
2017-06-15T23:12:29.318Z,3.23
2017-06-15T23:14:57.176Z,3.77
2017-06-15T23:17:24.745Z,6.00
2017-06-15T23:19:52.329Z,3.10
2017-06-15T23:22:19.951Z,3.10
2017-06-15T23:24:47.554Z,4.73
2017-06-15T23:27:15.887Z,3.30
2017-06-15T23:29:43.464Z,3.40
2017-06-15T23:32:11.059Z,3.40
2017-06-15T23:34:39.379Z,3.37
2017-06-15T23:37:06.943Z,2.50
2017-06-15T23:39:34.531Z,3.63
2017-06-15T23:42:02.101Z,3.00
2017-06-15T23:44:30.456Z,2.73
2017-06-15T23:46:58.021Z,5.07
2017-06-15T23:49:25.599Z,3.10
2017-06-15T23:51:53.193Z,2.87
2017-06-15T23:54:20.761Z,3.00
2017-06-15T23:56:48.334Z,2.50
2017-06-15T23:59:15.897Z,2.10
